createdAt,value
2017-08-06T00:00:02.756Z,94.03
2017-08-06T00:05:02.968Z,94.68
2017-08-06T00:10:03.474Z,94.82
2017-08-06T00:15:02.969Z,94.67
2017-08-06T00:20:02.798Z,94.67
2017-08-06T00:25:03.316Z,94.53
2017-08-06T00:30:02.778Z,94.33
2017-08-06T00:35:03.311Z,94.31
2017-08-06T00:40:02.812Z,94.24
2017-08-06T00:45:03.304Z,95.19
2017-08-06T00:50:02.828Z,95.25
2017-08-06T00:55:03.362Z,94.5
2017-08-06T01:00:02.840Z,95.01
2017-08-06T01:05:03.497Z,94.59
2017-08-06T01:10:02.996Z,95.87
2017-08-06T01:15:03.499Z,95.52
2017-08-06T01:20:03.121Z,95.52
2017-08-06T01:25:02.650Z,95.59
2017-08-06T01:30:03.127Z,95.29
2017-08-06T01:35:02.733Z,95.41
2017-08-06T01:40:03.294Z,95.51
2017-08-06T01:45:02.780Z,95.13
2017-08-06T01:50:03.326Z,95.06
2017-08-06T01:55:02.833Z,94.61
2017-08-06T02:00:03.330Z,94.23
2017-08-06T02:05:02.837Z,94.24
2017-08-06T02:10:03.432Z,93.78
2017-08-06T02:15:02.925Z,93.65
2017-08-06T02:20:03.585Z,93.54
2017-08-06T02:25:03.055Z,93.4
2017-08-06T02:30:03.569Z,93.35
2017-08-06T02:35:03.088Z,93.24
2017-08-06T02:40:03.587Z,93.55
2017-08-06T02:45:03.063Z,93.4
2017-08-06T02:50:03.359Z,92.63
2017-08-06T02:55:02.830Z,93.22
2017-08-06T03:00:03.314Z,93.6
2017-08-06T03:05:03.170Z,92.88
2017-08-06T03:10:02.704Z,93.18
2017-08-06T03:15:03.164Z,93.04
2017-08-06T03:20:02.782Z,92.87
2017-08-06T03:25:03.319Z,92.87
2017-08-06T03:30:02.824Z,92.61
2017-08-06T03:35:02.642Z,93.16
2017-08-06T03:40:03.200Z,92.73
2017-08-06T03:45:02.669Z,93.64
2017-08-06T03:50:03.293Z,92.98
2017-08-06T03:55:02.765Z,93.25
2017-08-06T04:00:03.300Z,93.05
2017-08-06T04:05:02.810Z,93.4
2017-08-06T04:10:03.288Z,93.96
2017-08-06T04:15:02.775Z,94.22
2017-08-06T04:20:03.447Z,94.48
2017-08-06T04:25:02.970Z,94.86
2017-08-06T04:30:03.478Z,94.47
2017-08-06T04:35:02.620Z,95.41
2017-08-06T04:40:03.201Z,95.44
2017-08-06T04:45:02.694Z,95.86
2017-08-06T04:50:02.862Z,95.63
2017-08-06T04:55:03.410Z,95.7
2017-08-06T05:00:02.896Z,95.47
2017-08-06T05:05:03.057Z,95.43
2017-08-06T05:10:03.574Z,95.12
2017-08-06T05:15:03.086Z,95.44
2017-08-06T05:20:02.720Z,95.14
2017-08-06T05:25:03.243Z,94.97
2017-08-06T05:30:02.751Z,95.12
2017-08-06T05:35:03.233Z,94.99
2017-08-06T05:40:02.767Z,94.76
2017-08-06T05:45:03.275Z,94.48
2017-08-06T05:50:03.170Z,94.3
2017-08-06T05:55:02.655Z,93.41
2017-08-06T06:00:03.146Z,93.35
2017-08-06T06:05:03.304Z,92.33
2017-08-06T06:10:02.819Z,91.26
2017-08-06T06:15:03.319Z,91.38
2017-08-06T06:20:03.242Z,90.81
2017-08-06T06:25:02.772Z,90.87
2017-08-06T06:30:03.300Z,89.7
2017-08-06T06:35:03.519Z,89.68
2017-08-06T06:40:03.067Z,90.58
2017-08-06T06:45:03.585Z,89.37
2017-08-06T06:50:03.080Z,88.45
2017-08-06T06:55:03.649Z,86.82
2017-08-06T07:00:03.119Z,85.33
2017-08-06T07:05:02.634Z,83.92
2017-08-06T07:10:03.194Z,82.86
2017-08-06T07:15:02.697Z,81.25
2017-08-06T07:20:02.803Z,81.73
2017-08-06T07:25:03.298Z,77.76
2017-08-06T07:30:02.827Z,78.8
2017-08-06T07:35:03.327Z,78.65
2017-08-06T07:40:02.836Z,78.35
2017-08-06T07:45:03.344Z,75.04
2017-08-06T07:50:02.854Z,70.73
2017-08-06T07:55:03.376Z,69.6
2017-08-06T08:00:02.850Z,67.59
2017-08-06T08:05:03.311Z,66.97
2017-08-06T08:10:03.831Z,68.86
2017-08-06T08:15:03.296Z,70.8
2017-08-06T08:20:02.943Z,71.84
2017-08-06T08:25:03.464Z,70.41
2017-08-06T08:30:02.933Z,71.24
2017-08-06T08:35:03.167Z,69.82
2017-08-06T08:40:02.626Z,70.78
2017-08-06T08:45:03.130Z,69.03
2017-08-06T08:50:03.457Z,70.03
2017-08-06T08:55:02.921Z,67.76
2017-08-06T09:00:03.451Z,63.71
2017-08-06T09:05:03.397Z,61.2
2017-08-06T09:10:02.965Z,61.4
2017-08-06T09:15:03.448Z,61.35
2017-08-06T09:20:03.056Z,57.82
2017-08-06T09:25:03.615Z,53.86
2017-08-06T09:30:03.297Z,58.7
2017-08-06T09:35:03.251Z,59.99
2017-08-06T09:40:02.759Z,60.44
2017-08-06T09:45:03.249Z,58.27
2017-08-06T09:50:03.618Z,61.13
2017-08-06T09:55:03.209Z,54.59
2017-08-06T10:00:02.653Z,51.47
2017-08-06T10:05:03.262Z,57.58
2017-08-06T10:10:02.751Z,56.47
2017-08-06T10:15:03.260Z,54.4
2017-08-06T10:20:02.710Z,58.48
2017-08-06T10:25:03.253Z,59.01
2017-08-06T10:30:02.755Z,59.46
2017-08-06T10:35:03.588Z,59.58
2017-08-06T10:40:03.066Z,56.86
2017-08-06T10:45:03.610Z,55.65
2017-08-06T10:50:02.833Z,56.9
2017-08-06T10:55:03.356Z,57.81
2017-08-06T11:00:02.835Z,60.94
2017-08-06T11:05:03.353Z,57.07
2017-08-06T11:10:02.817Z,57.2
2017-08-06T11:15:03.302Z,58.95
2017-08-06T11:20:03.455Z,59.36
2017-08-06T11:25:02.975Z,57.49
2017-08-06T11:30:03.491Z,56.88
2017-08-06T11:35:03.008Z,57.91
2017-08-06T11:40:03.489Z,58.52
2017-08-06T11:45:02.960Z,57.24
2017-08-06T11:50:02.906Z,55.76
2017-08-06T11:55:03.394Z,54.68
2017-08-06T12:00:02.894Z,58.9
2017-08-06T12:05:03.625Z,57.82
2017-08-06T12:10:03.092Z,56.27
2017-08-06T12:15:03.576Z,52.83
2017-08-06T12:20:03.207Z,54.07
2017-08-06T12:25:02.684Z,53.86
2017-08-06T12:30:03.192Z,54.59
2017-08-06T12:35:03.525Z,56.93
2017-08-06T12:40:02.985Z,54.62
2017-08-06T12:45:03.523Z,52.22
2017-08-06T12:50:03.408Z,55.52
2017-08-06T12:55:02.878Z,53.42
2017-08-06T13:00:03.383Z,54.19
2017-08-06T13:05:03.490Z,51.83
2017-08-06T13:10:03.015Z,52.56
2017-08-06T13:15:03.488Z,53.21
2017-08-06T13:20:03.056Z,57.14
2017-08-06T13:25:03.640Z,53.03
2017-08-06T13:30:03.117Z,53.98
2017-08-06T13:35:03.060Z,53.09
2017-08-06T13:40:03.574Z,52.52
2017-08-06T13:45:03.072Z,54.37
2017-08-06T13:50:02.644Z,52.96
2017-08-06T13:55:08.141Z,50.66
2017-08-06T14:00:02.622Z,48.24
2017-08-06T14:05:02.889Z,48.37
2017-08-06T14:10:03.433Z,49.26
2017-08-06T14:15:02.947Z,49.78
2017-08-06T14:20:03.002Z,48.9
2017-08-06T14:25:03.479Z,47.85
2017-08-06T14:30:02.942Z,49.29
2017-08-06T14:35:03.528Z,49.59
2017-08-06T14:40:03.001Z,49.92
2017-08-06T14:45:03.521Z,52.13
2017-08-06T14:50:03.265Z,49.91
2017-08-06T14:55:02.802Z,48.67
2017-08-06T15:00:03.342Z,50.43
2017-08-06T15:05:03.250Z,47.13
2017-08-06T15:10:02.738Z,45.09
2017-08-06T15:15:03.259Z,47.55
2017-08-06T15:20:02.890Z,48.62
2017-08-06T15:25:03.406Z,45.55
2017-08-06T15:30:02.920Z,44.55
2017-08-06T15:35:03.413Z,43.86
2017-08-06T15:40:02.913Z,45.61
2017-08-06T15:45:03.394Z,47.96
2017-08-06T15:50:02.835Z,47.13
2017-08-06T15:55:03.403Z,44.37
2017-08-06T16:00:02.897Z,44.66
2017-08-06T16:05:02.701Z,45.52
2017-08-06T16:10:03.229Z,47.01
2017-08-06T16:15:02.744Z,45.62
2017-08-06T16:20:03.403Z,42.5
2017-08-06T16:25:02.874Z,41.17
2017-08-06T16:30:03.365Z,41.95
2017-08-06T16:35:03.181Z,43.04
2017-08-06T16:40:02.716Z,42.44
2017-08-06T16:45:03.190Z,43.78
2017-08-06T16:50:03.621Z,41.86
2017-08-06T16:55:03.105Z,43.95
2017-08-06T17:00:03.589Z,47.82
2017-08-06T17:05:02.902Z,48.56
2017-08-06T17:10:08.440Z,45.3
2017-08-06T17:15:02.932Z,47.36
2017-08-06T17:20:03.667Z,45.07
2017-08-06T17:25:08.184Z,46.91
2017-08-06T17:30:02.675Z,47
2017-08-06T17:35:03.480Z,46.97
2017-08-06T17:40:02.993Z,47.37
2017-08-06T17:45:03.484Z,47.97
2017-08-06T17:50:02.839Z,48.11
2017-08-06T17:55:03.390Z,48.47
2017-08-06T18:00:02.950Z,49.57
